CYFSPAWG

Guest
Details From CYFS - Fort Simpson
To PAWG - Wrangell
Flight Number -
Tags Generated
Created
Modified
Stats Distance 466 nm / 863 km
Max Altitude 0 ft / 0 m
Waypoints 3
Social Downloads 0
Likes 0
Share VATSIM

Download

Looking for another format? Having issues loading an existing format? Contact us
Advertisement - Login to hide

Notes

Generated

Route

CYFS R0387 PAWG

ID Type Via Altitude Latitude Longitude Leg Dist Tot Dist Heading (true) Name
O CYFS APT - 0 ft / 0 m 61.76778˚ -121.24371˚ - 0 nm - -
R0387 FIX - 0 ft / 0 m 56.48860˚ -132.38250˚ 466 nm 466 nm 232° / 223° -
O PAWG APT - 0 ft / 0 m 56.48860˚ -132.38250˚ 0 nm 466 nm 0° / 180° -

Altitude Profile

Advertisement - Login to hide

Weather


0- 5 10 15 20 25 30 35+ Temperature / ° C

Clouds and Precipitation
Forecast for 2017-12-16 12:00 UTC. Updated 6 minutes ago

Ground ~20,000 ft ~40,000 ft Winds

CYFS

Details ICAO CYFS (YFS)
Name FORT SIMPSON
Region Canada
Timezone America/Yellowknife (UTC-7.0)
Stats Elevation 555 ft / 169 m (AMSL)
Location 61.760281° -121.236665°
Runways 1
Magnetic Variation 19.164° E

METAR

CYFS 161100Z 13004KT 15SM BKN007 M10/M12 A2977 RMK ST5 SLP100

Decode

TAF

TAF AMD CYFS 161005Z 1610/1618 VRB03KT P6SM FEW008 SCT020 TEMPO 1610/1614 BKN008 RMK NXT FCST BY 161200Z

Decode

Departure Runways

ID Width Length Bearing (true) Bearing (mag) Surface Threshold Offset Overrun Length
13 150 ft / 46 m 5,986 ft / 1,825 m 156.01° 136.85° Asphalt 0 ft / 0 m 0 ft / 0 m
31 150 ft / 46 m 5,986 ft / 1,825 m 336.02° 316.86° Asphalt 0 ft / 0 m 0 ft / 0 m

PAWG

Details ICAO PAWG (WRG)
Name WRANGELL
Region USA (Alaska)
Timezone America/Juneau (UTC-9.0)
Stats Elevation 44 ft / 13 m (AMSL)
Location 56.484324° -132.369832°
Runways 1
Magnetic Variation 18.808° E

METAR

Not found

TAF

PAWG 160536Z 1606/1706 13008KT P6SM VCSH SCT035 OVC050 FM161000 12015G20KT 6SM -RA BR OVC030 FM161300 13018G25KT 4SM RA BR BKN008 OVC012 FM162100 15009KT 5SM -RA BR SCT008 BKN012 OVC020 FM170100 21008KT 4SM -RA BR OVC015 AMD LTD TO CLD VIS AND WIND 1606/1615

Decode

Destination Runways

ID Width Length Bearing (true) Bearing (mag) Surface Threshold Offset Overrun Length
10 150 ft / 46 m 5,983 ft / 1,824 m 121.43° 102.62° Asphalt 0 ft / 0 m 0 ft / 0 m
28 150 ft / 46 m 5,983 ft / 1,824 m 301.45° 282.64° Asphalt 0 ft / 0 m 0 ft / 0 m

Approach Navaids

Runway Type Ident Frequency Range Bearing (true) Bearing (mag) Slope Elevation
10 Localiser IRGL 108.50 MHz 18 nm / 33 km 112.18° 93.37° - 40 ft / 12 m (AMSL)
10 DME IRGL 108.50 MHz 18 nm / 33 km - - - 58 ft / 18 m (AMSL)